sensor_id;sensor_type;location;lat;lon;timestamp;P1;durP1;ratioP1;P2;durP2;ratioP2
74369;SDS011;71062;44.520;11.342;2023-10-08T00:02:10;20.85;;;12.48;;
74369;SDS011;71062;44.520;11.342;2023-10-08T00:04:36;18.77;;;13.32;;
74369;SDS011;71062;44.520;11.342;2023-10-08T00:07:05;20.10;;;12.45;;
74369;SDS011;71062;44.520;11.342;2023-10-08T00:09:33;21.55;;;13.55;;
74369;SDS011;71062;44.520;11.342;2023-10-08T00:12:02;21.85;;;13.25;;
74369;SDS011;71062;44.520;11.342;2023-10-08T00:14:29;19.75;;;13.23;;
74369;SDS011;71062;44.520;11.342;2023-10-08T00:16:55;19.90;;;13.40;;
74369;SDS011;71062;44.520;11.342;2023-10-08T00:19:21;21.52;;;13.95;;
74369;SDS011;71062;44.520;11.342;2023-10-08T00:21:46;21.83;;;15.13;;
74369;SDS011;71062;44.520;11.342;2023-10-08T00:24:13;20.38;;;13.23;;
74369;SDS011;71062;44.520;11.342;2023-10-08T00:26:40;20.10;;;13.40;;
74369;SDS011;71062;44.520;11.342;2023-10-08T00:29:08;21.27;;;13.32;;
74369;SDS011;71062;44.520;11.342;2023-10-08T00:31:46;22.60;;;14.43;;
74369;SDS011;71062;44.520;11.342;2023-10-08T00:34:15;21.65;;;14.70;;
74369;SDS011;71062;44.520;11.342;2023-10-08T00:36:45;23.38;;;13.95;;
74369;SDS011;71062;44.520;11.342;2023-10-08T00:39:13;19.33;;;12.73;;
74369;SDS011;71062;44.520;11.342;2023-10-08T00:41:40;23.85;;;14.18;;
74369;SDS011;71062;44.520;11.342;2023-10-08T00:44:12;20.25;;;13.98;;
74369;SDS011;71062;44.520;11.342;2023-10-08T00:46:40;26.55;;;14.85;;
74369;SDS011;71062;44.520;11.342;2023-10-08T00:49:13;22.98;;;14.52;;
74369;SDS011;71062;44.520;11.342;2023-10-08T00:51:50;21.83;;;14.93;;
74369;SDS011;71062;44.520;11.342;2023-10-08T00:54:49;21.50;;;14.05;;
74369;SDS011;71062;44.520;11.342;2023-10-08T00:57:30;23.23;;;14.98;;
74369;SDS011;71062;44.520;11.342;2023-10-08T00:59:59;23.77;;;15.70;;
74369;SDS011;71062;44.520;11.342;2023-10-08T01:02:26;26.58;;;15.25;;
74369;SDS011;71062;44.520;11.342;2023-10-08T01:05:14;22.27;;;14.93;;
74369;SDS011;71062;44.520;11.342;2023-10-08T01:07:45;21.95;;;13.80;;
74369;SDS011;71062;44.520;11.342;2023-10-08T01:10:16;22.35;;;15.15;;
74369;SDS011;71062;44.520;11.342;2023-10-08T01:12:45;22.25;;;14.90;;
74369;SDS011;71062;44.520;11.342;2023-10-08T01:15:40;25.52;;;14.80;;
74369;SDS011;71062;44.520;11.342;2023-10-08T01:18:07;21.98;;;14.68;;
74369;SDS011;71062;44.520;11.342;2023-10-08T01:23:18;24.40;;;15.52;;
74369;SDS011;71062;44.520;11.342;2023-10-08T01:25:48;22.73;;;14.68;;
74369;SDS011;71062;44.520;11.342;2023-10-08T01:28:18;21.88;;;14.93;;
74369;SDS011;71062;44.520;11.342;2023-10-08T01:30:56;26.75;;;16.02;;
74369;SDS011;71062;44.520;11.342;2023-10-08T01:33:26;24.65;;;16.52;;
74369;SDS011;71062;44.520;11.342;2023-10-08T01:35:55;22.85;;;15.20;;
74369;SDS011;71062;44.520;11.342;2023-10-08T01:38:28;22.80;;;15.10;;
74369;SDS011;71062;44.520;11.342;2023-10-08T01:40:54;21.33;;;15.63;;
74369;SDS011;71062;44.520;11.342;2023-10-08T01:43:22;23.10;;;16.00;;
74369;SDS011;71062;44.520;11.342;2023-10-08T01:45:50;23.05;;;15.82;;
74369;SDS011;71062;44.520;11.342;2023-10-08T01:48:17;20.77;;;13.52;;
74369;SDS011;71062;44.520;11.342;2023-10-08T01:50:56;23.63;;;14.85;;
74369;SDS011;71062;44.520;11.342;2023-10-08T01:53:27;22.60;;;15.63;;
74369;SDS011;71062;44.520;11.342;2023-10-08T01:55:53;21.27;;;15.27;;
74369;SDS011;71062;44.520;11.342;2023-10-08T02:00:48;23.45;;;15.52;;
74369;SDS011;71062;44.520;11.342;2023-10-08T02:03:14;23.10;;;15.50;;
74369;SDS011;71062;44.520;11.342;2023-10-08T02:05:43;29.50;;;15.40;;
74369;SDS011;71062;44.520;11.342;2023-10-08T02:08:12;23.35;;;15.57;;
74369;SDS011;71062;44.520;11.342;2023-10-08T02:10:40;24.58;;;16.02;;
74369;SDS011;71062;44.520;11.342;2023-10-08T02:13:08;24.60;;;15.90;;
74369;SDS011;71062;44.520;11.342;2023-10-08T02:15:35;25.58;;;15.32;;
74369;SDS011;71062;44.520;11.342;2023-10-08T02:18:02;28.55;;;16.05;;
74369;SDS011;71062;44.520;11.342;2023-10-08T02:20:29;24.27;;;15.93;;
74369;SDS011;71062;44.520;11.342;2023-10-08T02:22:55;23.77;;;15.52;;
74369;SDS011;71062;44.520;11.342;2023-10-08T02:25:20;22.17;;;15.60;;
74369;SDS011;71062;44.520;11.342;2023-10-08T02:27:49;21.88;;;15.13;;
74369;SDS011;71062;44.520;11.342;2023-10-08T02:30:15;21.58;;;14.73;;
74369;SDS011;71062;44.520;11.342;2023-10-08T02:32:43;25.13;;;16.52;;
74369;SDS011;71062;44.520;11.342;2023-10-08T02:35:09;24.58;;;15.00;;
74369;SDS011;71062;44.520;11.342;2023-10-08T02:37:39;22.60;;;15.30;;
74369;SDS011;71062;44.520;11.342;2023-10-08T02:40:08;24.30;;;15.80;;
74369;SDS011;71062;44.520;11.342;2023-10-08T02:45:12;26.25;;;16.25;;
74369;SDS011;71062;44.520;11.342;2023-10-08T02:47:41;23.45;;;15.27;;
74369;SDS011;71062;44.520;11.342;2023-10-08T02:50:10;22.95;;;15.35;;
74369;SDS011;71062;44.520;11.342;2023-10-08T02:52:37;21.20;;;15.55;;
74369;SDS011;71062;44.520;11.342;2023-10-08T02:55:03;25.90;;;16.08;;
74369;SDS011;71062;44.520;11.342;2023-10-08T02:57:30;21.25;;;14.60;;
74369;SDS011;71062;44.520;11.342;2023-10-08T02:59:57;22.70;;;14.32;;
74369;SDS011;71062;44.520;11.342;2023-10-08T03:02:22;26.35;;;16.08;;
74369;SDS011;71062;44.520;11.342;2023-10-08T03:04:51;24.08;;;15.27;;
74369;SDS011;71062;44.520;11.342;2023-10-08T03:07:18;23.10;;;14.75;;
74369;SDS011;71062;44.520;11.342;2023-10-08T03:09:47;21.73;;;15.13;;
74369;SDS011;71062;44.520;11.342;2023-10-08T03:12:28;23.45;;;15.35;;
74369;SDS011;71062;44.520;11.342;2023-10-08T03:14:57;23.58;;;15.65;;
74369;SDS011;71062;44.520;11.342;2023-10-08T03:17:39;23.15;;;15.70;;
74369;SDS011;71062;44.520;11.342;2023-10-08T03:20:16;23.90;;;14.50;;
74369;SDS011;71062;44.520;11.342;2023-10-08T03:23:03;23.70;;;15.43;;
74369;SDS011;71062;44.520;11.342;2023-10-08T03:25:38;23.33;;;15.07;;
74369;SDS011;71062;44.520;11.342;2023-10-08T03:28:10;21.55;;;14.98;;
74369;SDS011;71062;44.520;11.342;2023-10-08T03:30:38;25.13;;;16.63;;
74369;SDS011;71062;44.520;11.342;2023-10-08T03:33:17;26.63;;;16.38;;
74369;SDS011;71062;44.520;11.342;2023-10-08T03:35:50;23.90;;;14.93;;
74369;SDS011;71062;44.520;11.342;2023-10-08T03:38:20;23.65;;;15.40;;
74369;SDS011;71062;44.520;11.342;2023-10-08T03:41:04;28.15;;;16.23;;
74369;SDS011;71062;44.520;11.342;2023-10-08T03:43:34;24.33;;;15.00;;
74369;SDS011;71062;44.520;11.342;2023-10-08T03:46:09;25.67;;;15.63;;
74369;SDS011;71062;44.520;11.342;2023-10-08T03:48:41;22.98;;;15.48;;
74369;SDS011;71062;44.520;11.342;2023-10-08T03:51:10;23.67;;;16.13;;
74369;SDS011;71062;44.520;11.342;2023-10-08T03:53:39;22.55;;;15.25;;
74369;SDS011;71062;44.520;11.342;2023-10-08T03:56:24;25.05;;;16.00;;
74369;SDS011;71062;44.520;11.342;2023-10-08T03:58:51;27.08;;;16.60;;
74369;SDS011;71062;44.520;11.342;2023-10-08T04:01:20;25.88;;;15.70;;
74369;SDS011;71062;44.520;11.342;2023-10-08T04:03:46;27.75;;;15.15;;
74369;SDS011;71062;44.520;11.342;2023-10-08T04:06:21;25.65;;;16.55;;
74369;SDS011;71062;44.520;11.342;2023-10-08T04:08:56;27.08;;;15.63;;
74369;SDS011;71062;44.520;11.342;2023-10-08T04:11:34;23.90;;;14.80;;
74369;SDS011;71062;44.520;11.342;2023-10-08T04:14:04;24.58;;;15.68;;
74369;SDS011;71062;44.520;11.342;2023-10-08T04:16:31;23.75;;;14.93;;
74369;SDS011;71062;44.520;11.342;2023-10-08T04:19:02;24.52;;;16.05;;
74369;SDS011;71062;44.520;11.342;2023-10-08T04:21:28;26.00;;;16.45;;
74369;SDS011;71062;44.520;11.342;2023-10-08T04:23:55;23.83;;;14.63;;
74369;SDS011;71062;44.520;11.342;2023-10-08T04:26:23;28.80;;;17.45;;
74369;SDS011;71062;44.520;11.342;2023-10-08T04:28:50;25.25;;;16.33;;
74369;SDS011;71062;44.520;11.342;2023-10-08T04:31:23;26.60;;;17.77;;
74369;SDS011;71062;44.520;11.342;2023-10-08T04:34:11;23.13;;;15.45;;
74369;SDS011;71062;44.520;11.342;2023-10-08T04:36:48;28.63;;;16.25;;
74369;SDS011;71062;44.520;11.342;2023-10-08T04:39:23;27.60;;;17.40;;
74369;SDS011;71062;44.520;11.342;2023-10-08T04:41:57;24.88;;;16.85;;
74369;SDS011;71062;44.520;11.342;2023-10-08T04:44:50;27.55;;;16.10;;
74369;SDS011;71062;44.520;11.342;2023-10-08T04:47:17;26.50;;;17.63;;
74369;SDS011;71062;44.520;11.342;2023-10-08T04:49:59;25.27;;;16.27;;
74369;SDS011;71062;44.520;11.342;2023-10-08T04:52:25;29.17;;;18.27;;
74369;SDS011;71062;44.520;11.342;2023-10-08T04:54:53;29.33;;;17.75;;
74369;SDS011;71062;44.520;11.342;2023-10-08T04:57:20;29.27;;;17.17;;
74369;SDS011;71062;44.520;11.342;2023-10-08T04:59:51;25.35;;;17.42;;
74369;SDS011;71062;44.520;11.342;2023-10-08T05:02:19;24.80;;;16.95;;
74369;SDS011;71062;44.520;11.342;2023-10-08T05:04:46;27.10;;;16.27;;
74369;SDS011;71062;44.520;11.342;2023-10-08T05:07:17;28.23;;;17.58;;
74369;SDS011;71062;44.520;11.342;2023-10-08T05:10:06;29.15;;;17.45;;
74369;SDS011;71062;44.520;11.342;2023-10-08T05:12:32;29.45;;;17.88;;
74369;SDS011;71062;44.520;11.342;2023-10-08T05:14:58;26.17;;;16.92;;
74369;SDS011;71062;44.520;11.342;2023-10-08T05:17:43;26.73;;;17.75;;
74369;SDS011;71062;44.520;11.342;2023-10-08T05:20:16;28.63;;;17.25;;
74369;SDS011;71062;44.520;11.342;2023-10-08T05:22:45;26.60;;;17.05;;
74369;SDS011;71062;44.520;11.342;2023-10-08T05:25:20;26.45;;;17.55;;
74369;SDS011;71062;44.520;11.342;2023-10-08T05:27:46;31.13;;;16.85;;
74369;SDS011;71062;44.520;11.342;2023-10-08T05:30:32;26.65;;;16.92;;
74369;SDS011;71062;44.520;11.342;2023-10-08T05:33:07;26.38;;;16.45;;
74369;SDS011;71062;44.520;11.342;2023-10-08T05:36:12;29.10;;;17.83;;
74369;SDS011;71062;44.520;11.342;2023-10-08T05:38:58;26.88;;;17.58;;
74369;SDS011;71062;44.520;11.342;2023-10-08T05:41:29;26.38;;;17.90;;
74369;SDS011;71062;44.520;11.342;2023-10-08T05:44:16;25.25;;;17.23;;
74369;SDS011;71062;44.520;11.342;2023-10-08T05:46:45;30.02;;;18.13;;
74369;SDS011;71062;44.520;11.342;2023-10-08T05:49:33;28.13;;;17.13;;
74369;SDS011;71062;44.520;11.342;2023-10-08T05:51:58;28.25;;;17.33;;
74369;SDS011;71062;44.520;11.342;2023-10-08T05:54:24;27.60;;;16.73;;
74369;SDS011;71062;44.520;11.342;2023-10-08T05:57:11;32.75;;;18.38;;
74369;SDS011;71062;44.520;11.342;2023-10-08T06:05:06;27.30;;;16.58;;
74369;SDS011;71062;44.520;11.342;2023-10-08T06:08:12;31.98;;;17.00;;
74369;SDS011;71062;44.520;11.342;2023-10-08T06:10:38;26.17;;;15.85;;
74369;SDS011;71062;44.520;11.342;2023-10-08T06:13:13;29.38;;;16.92;;
74369;SDS011;71062;44.520;11.342;2023-10-08T06:15:43;26.70;;;16.77;;
74369;SDS011;71062;44.520;11.342;2023-10-08T06:18:25;24.00;;;15.85;;
74369;SDS011;71062;44.520;11.342;2023-10-08T06:20:53;24.95;;;15.38;;
74369;SDS011;71062;44.520;11.342;2023-10-08T06:25:49;32.40;;;15.70;;
74369;SDS011;71062;44.520;11.342;2023-10-08T06:28:24;27.63;;;16.67;;
74369;SDS011;71062;44.520;11.342;2023-10-08T06:33:21;25.65;;;15.73;;
74369;SDS011;71062;44.520;11.342;2023-10-08T06:35:56;27.05;;;16.90;;
74369;SDS011;71062;44.520;11.342;2023-10-08T06:38:30;25.13;;;15.27;;
74369;SDS011;71062;44.520;11.342;2023-10-08T06:41:00;23.77;;;15.13;;
74369;SDS011;71062;44.520;11.342;2023-10-08T06:43:44;29.85;;;17.45;;
74369;SDS011;71062;44.520;11.342;2023-10-08T06:46:29;21.73;;;14.48;;
74369;SDS011;71062;44.520;11.342;2023-10-08T06:48:59;28.45;;;16.30;;
74369;SDS011;71062;44.520;11.342;2023-10-08T06:51:28;24.38;;;15.60;;
74369;SDS011;71062;44.520;11.342;2023-10-08T06:53:55;22.13;;;14.75;;
74369;SDS011;71062;44.520;11.342;2023-10-08T06:56:25;23.38;;;14.32;;
74369;SDS011;71062;44.520;11.342;2023-10-08T06:58:51;22.13;;;14.38;;
74369;SDS011;71062;44.520;11.342;2023-10-08T07:01:20;24.20;;;16.50;;
74369;SDS011;71062;44.520;11.342;2023-10-08T07:04:07;24.58;;;14.85;;
74369;SDS011;71062;44.520;11.342;2023-10-08T07:06:42;22.52;;;15.93;;
74369;SDS011;71062;44.520;11.342;2023-10-08T07:09:09;27.60;;;16.50;;
74369;SDS011;71062;44.520;11.342;2023-10-08T07:11:58;24.13;;;15.90;;
74369;SDS011;71062;44.520;11.342;2023-10-08T07:14:30;25.10;;;16.65;;
74369;SDS011;71062;44.520;11.342;2023-10-08T07:16:57;26.77;;;16.63;;
74369;SDS011;71062;44.520;11.342;2023-10-08T07:19:25;23.80;;;15.32;;
74369;SDS011;71062;44.520;11.342;2023-10-08T07:22:01;26.20;;;16.42;;
74369;SDS011;71062;44.520;11.342;2023-10-08T07:24:29;22.75;;;15.43;;
74369;SDS011;71062;44.520;11.342;2023-10-08T07:26:56;26.88;;;16.52;;
74369;SDS011;71062;44.520;11.342;2023-10-08T07:29:22;27.88;;;17.15;;
74369;SDS011;71062;44.520;11.342;2023-10-08T07:31:50;26.92;;;16.55;;
74369;SDS011;71062;44.520;11.342;2023-10-08T07:34:18;25.45;;;17.13;;
74369;SDS011;71062;44.520;11.342;2023-10-08T07:36:51;29.45;;;16.98;;
74369;SDS011;71062;44.520;11.342;2023-10-08T07:39:20;26.48;;;16.23;;
74369;SDS011;71062;44.520;11.342;2023-10-08T07:41:59;24.65;;;16.95;;
74369;SDS011;71062;44.520;11.342;2023-10-08T07:44:30;23.40;;;17.05;;
74369;SDS011;71062;44.520;11.342;2023-10-08T07:46:56;28.33;;;15.82;;
74369;SDS011;71062;44.520;11.342;2023-10-08T07:49:23;25.77;;;15.23;;
74369;SDS011;71062;44.520;11.342;2023-10-08T07:51:51;27.33;;;15.18;;
74369;SDS011;71062;44.520;11.342;2023-10-08T07:54:20;26.25;;;16.77;;
74369;SDS011;71062;44.520;11.342;2023-10-08T07:56:53;26.08;;;17.27;;
74369;SDS011;71062;44.520;11.342;2023-10-08T07:59:26;25.17;;;15.95;;
74369;SDS011;71062;44.520;11.342;2023-10-08T08:01:51;26.88;;;14.95;;
74369;SDS011;71062;44.520;11.342;2023-10-08T08:04:19;26.15;;;17.05;;
74369;SDS011;71062;44.520;11.342;2023-10-08T08:06:51;30.17;;;16.33;;
74369;SDS011;71062;44.520;11.342;2023-10-08T08:09:18;23.95;;;14.32;;
74369;SDS011;71062;44.520;11.342;2023-10-08T08:11:48;21.48;;;14.10;;
74369;SDS011;71062;44.520;11.342;2023-10-08T08:14:15;24.02;;;16.35;;
74369;SDS011;71062;44.520;11.342;2023-10-08T08:16:50;21.85;;;15.80;;
74369;SDS011;71062;44.520;11.342;2023-10-08T08:19:16;25.63;;;15.52;;
74369;SDS011;71062;44.520;11.342;2023-10-08T08:24:17;18.95;;;12.90;;
74369;SDS011;71062;44.520;11.342;2023-10-08T08:26:57;18.67;;;12.05;;
74369;SDS011;71062;44.520;11.342;2023-10-08T08:29:37;21.45;;;12.77;;
74369;SDS011;71062;44.520;11.342;2023-10-08T08:32:13;18.10;;;10.75;;
74369;SDS011;71062;44.520;11.342;2023-10-08T08:34:44;20.52;;;12.70;;
74369;SDS011;71062;44.520;11.342;2023-10-08T08:37:13;20.10;;;12.80;;
74369;SDS011;71062;44.520;11.342;2023-10-08T08:39:39;19.75;;;10.10;;
74369;SDS011;71062;44.520;11.342;2023-10-08T08:42:06;19.48;;;12.90;;
74369;SDS011;71062;44.520;11.342;2023-10-08T08:44:35;21.67;;;13.85;;
74369;SDS011;71062;44.520;11.342;2023-10-08T08:47:04;20.65;;;13.68;;
74369;SDS011;71062;44.520;11.342;2023-10-08T08:49:32;23.02;;;13.90;;
74369;SDS011;71062;44.520;11.342;2023-10-08T08:52:02;21.00;;;13.40;;
74369;SDS011;71062;44.520;11.342;2023-10-08T08:54:29;19.52;;;13.85;;
74369;SDS011;71062;44.520;11.342;2023-10-08T08:56:57;18.75;;;12.30;;
74369;SDS011;71062;44.520;11.342;2023-10-08T08:59:25;21.52;;;14.25;;
74369;SDS011;71062;44.520;11.342;2023-10-08T09:01:56;21.55;;;14.60;;
74369;SDS011;71062;44.520;11.342;2023-10-08T09:04:29;23.05;;;15.20;;
74369;SDS011;71062;44.520;11.342;2023-10-08T09:06:56;20.40;;;14.20;;
74369;SDS011;71062;44.520;11.342;2023-10-08T09:09:23;21.02;;;14.73;;
74369;SDS011;71062;44.520;11.342;2023-10-08T09:12:18;20.83;;;14.30;;
74369;SDS011;71062;44.520;11.342;2023-10-08T09:14:47;24.90;;;15.07;;
74369;SDS011;71062;44.520;11.342;2023-10-08T09:17:13;27.35;;;16.92;;
74369;SDS011;71062;44.520;11.342;2023-10-08T09:19:40;25.10;;;15.20;;
74369;SDS011;71062;44.520;11.342;2023-10-08T09:22:06;26.35;;;17.67;;
74369;SDS011;71062;44.520;11.342;2023-10-08T09:24:34;26.90;;;16.48;;
74369;SDS011;71062;44.520;11.342;2023-10-08T09:27:08;26.80;;;17.58;;
74369;SDS011;71062;44.520;11.342;2023-10-08T09:29:39;34.08;;;16.85;;
74369;SDS011;71062;44.520;11.342;2023-10-08T09:32:07;25.80;;;16.88;;
74369;SDS011;71062;44.520;11.342;2023-10-08T09:34:34;26.30;;;15.70;;
74369;SDS011;71062;44.520;11.342;2023-10-08T09:37:00;23.77;;;15.80;;
74369;SDS011;71062;44.520;11.342;2023-10-08T09:39:27;28.20;;;17.30;;
74369;SDS011;71062;44.520;11.342;2023-10-08T09:41:56;26.55;;;16.63;;
74369;SDS011;71062;44.520;11.342;2023-10-08T09:44:23;25.80;;;17.08;;
74369;SDS011;71062;44.520;11.342;2023-10-08T09:46:53;29.92;;;18.42;;
74369;SDS011;71062;44.520;11.342;2023-10-08T09:49:29;25.52;;;16.15;;
74369;SDS011;71062;44.520;11.342;2023-10-08T09:52:04;22.30;;;14.82;;
74369;SDS011;71062;44.520;11.342;2023-10-08T09:54:37;24.02;;;15.65;;
74369;SDS011;71062;44.520;11.342;2023-10-08T09:57:09;26.38;;;15.93;;
74369;SDS011;71062;44.520;11.342;2023-10-08T09:59:36;24.08;;;14.60;;
74369;SDS011;71062;44.520;11.342;2023-10-08T10:02:09;24.17;;;14.45;;
74369;SDS011;71062;44.520;11.342;2023-10-08T10:04:35;22.70;;;15.00;;
74369;SDS011;71062;44.520;11.342;2023-10-08T10:07:11;20.77;;;14.73;;
74369;SDS011;71062;44.520;11.342;2023-10-08T10:09:42;20.95;;;14.65;;
74369;SDS011;71062;44.520;11.342;2023-10-08T10:12:12;20.80;;;14.63;;
74369;SDS011;71062;44.520;11.342;2023-10-08T10:14:45;23.40;;;14.95;;
74369;SDS011;71062;44.520;11.342;2023-10-08T10:17:20;17.67;;;13.15;;
74369;SDS011;71062;44.520;11.342;2023-10-08T10:19:57;17.10;;;13.10;;
74369;SDS011;71062;44.520;11.342;2023-10-08T10:22:29;23.08;;;13.98;;
74369;SDS011;71062;44.520;11.342;2023-10-08T10:24:58;16.25;;;10.07;;
74369;SDS011;71062;44.520;11.342;2023-10-08T10:27:29;18.35;;;12.15;;
74369;SDS011;71062;44.520;11.342;2023-10-08T10:30:04;14.98;;;10.32;;
74369;SDS011;71062;44.520;11.342;2023-10-08T10:32:37;19.02;;;12.90;;
74369;SDS011;71062;44.520;11.342;2023-10-08T10:35:03;18.40;;;11.68;;
74369;SDS011;71062;44.520;11.342;2023-10-08T10:37:37;20.75;;;12.63;;
74369;SDS011;71062;44.520;11.342;2023-10-08T10:40:22;16.75;;;11.65;;
74369;SDS011;71062;44.520;11.342;2023-10-08T10:43:07;17.33;;;12.32;;
74369;SDS011;71062;44.520;11.342;2023-10-08T10:45:36;15.82;;;10.68;;
74369;SDS011;71062;44.520;11.342;2023-10-08T10:48:08;20.38;;;11.50;;
74369;SDS011;71062;44.520;11.342;2023-10-08T10:50:46;18.15;;;12.98;;
74369;SDS011;71062;44.520;11.342;2023-10-08T10:53:38;16.42;;;11.13;;
74369;SDS011;71062;44.520;11.342;2023-10-08T10:56:23;18.48;;;13.70;;
74369;SDS011;71062;44.520;11.342;2023-10-08T10:59:01;16.13;;;12.15;;
74369;SDS011;71062;44.520;11.342;2023-10-08T11:01:44;18.70;;;12.30;;
74369;SDS011;71062;44.520;11.342;2023-10-08T11:06:59;15.35;;;10.90;;
74369;SDS011;71062;44.520;11.342;2023-10-08T11:09:26;17.05;;;12.07;;
74369;SDS011;71062;44.520;11.342;2023-10-08T11:12:03;16.90;;;12.75;;
74369;SDS011;71062;44.520;11.342;2023-10-08T11:14:42;18.05;;;11.65;;
74369;SDS011;71062;44.520;11.342;2023-10-08T11:17:11;14.88;;;10.88;;
74369;SDS011;71062;44.520;11.342;2023-10-08T11:19:40;20.13;;;11.20;;
74369;SDS011;71062;44.520;11.342;2023-10-08T11:22:08;18.67;;;11.70;;
74369;SDS011;71062;44.520;11.342;2023-10-08T11:24:42;17.38;;;11.10;;
74369;SDS011;71062;44.520;11.342;2023-10-08T11:27:13;15.77;;;10.25;;
74369;SDS011;71062;44.520;11.342;2023-10-08T11:29:54;15.73;;;10.45;;
74369;SDS011;71062;44.520;11.342;2023-10-08T11:32:26;17.60;;;10.27;;
74369;SDS011;71062;44.520;11.342;2023-10-08T11:34:58;16.55;;;9.93;;
74369;SDS011;71062;44.520;11.342;2023-10-08T11:37:29;16.60;;;9.45;;
74369;SDS011;71062;44.520;11.342;2023-10-08T11:39:59;13.18;;;9.63;;
74369;SDS011;71062;44.520;11.342;2023-10-08T11:42:33;13.77;;;10.02;;
74369;SDS011;71062;44.520;11.342;2023-10-08T11:44:59;17.35;;;9.93;;
74369;SDS011;71062;44.520;11.342;2023-10-08T11:47:43;16.52;;;10.25;;
74369;SDS011;71062;44.520;11.342;2023-10-08T11:50:11;17.00;;;9.40;;
74369;SDS011;71062;44.520;11.342;2023-10-08T11:52:42;15.23;;;9.93;;
74369;SDS011;71062;44.520;11.342;2023-10-08T11:55:08;15.73;;;10.07;;
74369;SDS011;71062;44.520;11.342;2023-10-08T11:57:35;15.75;;;9.75;;
74369;SDS011;71062;44.520;11.342;2023-10-08T12:00:03;16.02;;;9.82;;
74369;SDS011;71062;44.520;11.342;2023-10-08T12:02:47;13.63;;;9.77;;
74369;SDS011;71062;44.520;11.342;2023-10-08T12:05:14;14.98;;;9.65;;
74369;SDS011;71062;44.520;11.342;2023-10-08T12:07:49;16.05;;;9.55;;
74369;SDS011;71062;44.520;11.342;2023-10-08T12:10:23;13.00;;;8.13;;
74369;SDS011;71062;44.520;11.342;2023-10-08T12:15:20;12.75;;;8.10;;
74369;SDS011;71062;44.520;11.342;2023-10-08T12:17:47;12.85;;;8.32;;
74369;SDS011;71062;44.520;11.342;2023-10-08T12:20:33;13.88;;;8.43;;
74369;SDS011;71062;44.520;11.342;2023-10-08T12:23:10;12.57;;;8.55;;
74369;SDS011;71062;44.520;11.342;2023-10-08T12:26:01;13.88;;;8.50;;
74369;SDS011;71062;44.520;11.342;2023-10-08T12:28:28;12.43;;;8.07;;
74369;SDS011;71062;44.520;11.342;2023-10-08T12:30:54;12.68;;;8.43;;
74369;SDS011;71062;44.520;11.342;2023-10-08T12:33:23;12.88;;;7.47;;
74369;SDS011;71062;44.520;11.342;2023-10-08T12:35:51;13.32;;;8.45;;
74369;SDS011;71062;44.520;11.342;2023-10-08T12:38:21;14.02;;;7.53;;
74369;SDS011;71062;44.520;11.342;2023-10-08T12:40:53;16.70;;;7.88;;
74369;SDS011;71062;44.520;11.342;2023-10-08T12:43:25;10.75;;;7.53;;
74369;SDS011;71062;44.520;11.342;2023-10-08T12:45:53;15.93;;;7.53;;
74369;SDS011;71062;44.520;11.342;2023-10-08T12:48:22;12.15;;;6.15;;
74369;SDS011;71062;44.520;11.342;2023-10-08T12:50:52;13.32;;;7.22;;
74369;SDS011;71062;44.520;11.342;2023-10-08T12:53:22;12.23;;;7.30;;
74369;SDS011;71062;44.520;11.342;2023-10-08T12:55:54;14.52;;;7.47;;
74369;SDS011;71062;44.520;11.342;2023-10-08T12:58:23;11.57;;;7.03;;
74369;SDS011;71062;44.520;11.342;2023-10-08T13:00:51;12.27;;;8.02;;
74369;SDS011;71062;44.520;11.342;2023-10-08T13:03:25;16.27;;;6.95;;
74369;SDS011;71062;44.520;11.342;2023-10-08T13:05:55;16.88;;;7.30;;
74369;SDS011;71062;44.520;11.342;2023-10-08T13:08:30;13.68;;;6.95;;
74369;SDS011;71062;44.520;11.342;2023-10-08T13:10:57;13.40;;;7.50;;
74369;SDS011;71062;44.520;11.342;2023-10-08T13:13:26;12.07;;;7.13;;
74369;SDS011;71062;44.520;11.342;2023-10-08T13:15:53;14.55;;;6.72;;
74369;SDS011;71062;44.520;11.342;2023-10-08T13:18:24;15.73;;;7.35;;
74369;SDS011;71062;44.520;11.342;2023-10-08T13:20:53;13.57;;;6.97;;
74369;SDS011;71062;44.520;11.342;2023-10-08T13:23:19;11.90;;;7.07;;
74369;SDS011;71062;44.520;11.342;2023-10-08T13:25:49;17.00;;;7.28;;
74369;SDS011;71062;44.520;11.342;2023-10-08T13:28:23;12.20;;;6.50;;
74369;SDS011;71062;44.520;11.342;2023-10-08T13:30:52;12.68;;;6.75;;
74369;SDS011;71062;44.520;11.342;2023-10-08T13:33:20;15.65;;;7.82;;
74369;SDS011;71062;44.520;11.342;2023-10-08T13:35:49;14.18;;;7.38;;
74369;SDS011;71062;44.520;11.342;2023-10-08T13:38:19;17.67;;;6.82;;
74369;SDS011;71062;44.520;11.342;2023-10-08T13:40:54;12.07;;;6.75;;
74369;SDS011;71062;44.520;11.342;2023-10-08T13:43:29;12.20;;;6.50;;
74369;SDS011;71062;44.520;11.342;2023-10-08T13:46:08;15.30;;;7.00;;
74369;SDS011;71062;44.520;11.342;2023-10-08T13:48:38;19.52;;;7.43;;
74369;SDS011;71062;44.520;11.342;2023-10-08T13:51:06;13.77;;;6.97;;
74369;SDS011;71062;44.520;11.342;2023-10-08T13:53:39;15.85;;;6.95;;
74369;SDS011;71062;44.520;11.342;2023-10-08T13:56:06;14.63;;;6.72;;
74369;SDS011;71062;44.520;11.342;2023-10-08T13:58:32;16.48;;;6.78;;
74369;SDS011;71062;44.520;11.342;2023-10-08T14:01:05;13.43;;;6.55;;
74369;SDS011;71062;44.520;11.342;2023-10-08T14:03:47;13.10;;;7.10;;
74369;SDS011;71062;44.520;11.342;2023-10-08T14:06:16;16.38;;;7.50;;
74369;SDS011;71062;44.520;11.342;2023-10-08T14:08:43;16.42;;;6.38;;
74369;SDS011;71062;44.520;11.342;2023-10-08T14:11:20;15.13;;;6.45;;
74369;SDS011;71062;44.520;11.342;2023-10-08T14:13:52;15.48;;;6.70;;
74369;SDS011;71062;44.520;11.342;2023-10-08T14:16:19;13.35;;;6.68;;
74369;SDS011;71062;44.520;11.342;2023-10-08T14:18:52;14.05;;;6.53;;
74369;SDS011;71062;44.520;11.342;2023-10-08T14:21:20;14.85;;;6.90;;
74369;SDS011;71062;44.520;11.342;2023-10-08T14:23:56;14.55;;;6.75;;
74369;SDS011;71062;44.520;11.342;2023-10-08T14:26:28;12.30;;;6.40;;
74369;SDS011;71062;44.520;11.342;2023-10-08T14:29:00;14.02;;;6.75;;
74369;SDS011;71062;44.520;11.342;2023-10-08T14:31:35;18.92;;;6.88;;
74369;SDS011;71062;44.520;11.342;2023-10-08T14:34:04;18.63;;;6.30;;
74369;SDS011;71062;44.520;11.342;2023-10-08T14:36:32;17.48;;;6.90;;
74369;SDS011;71062;44.520;11.342;2023-10-08T14:39:16;14.10;;;6.30;;
74369;SDS011;71062;44.520;11.342;2023-10-08T14:42:15;14.88;;;5.90;;
74369;SDS011;71062;44.520;11.342;2023-10-08T14:44:59;16.20;;;6.47;;
74369;SDS011;71062;44.520;11.342;2023-10-08T14:47:26;13.88;;;6.25;;
74369;SDS011;71062;44.520;11.342;2023-10-08T14:49:51;17.63;;;7.72;;
74369;SDS011;71062;44.520;11.342;2023-10-08T14:52:18;20.10;;;7.45;;
74369;SDS011;71062;44.520;11.342;2023-10-08T14:57:10;14.20;;;5.75;;
74369;SDS011;71062;44.520;11.342;2023-10-08T14:59:40;17.77;;;5.60;;
74369;SDS011;71062;44.520;11.342;2023-10-08T15:02:07;15.80;;;5.38;;
74369;SDS011;71062;44.520;11.342;2023-10-08T15:04:36;14.23;;;6.30;;
74369;SDS011;71062;44.520;11.342;2023-10-08T15:07:07;16.65;;;6.00;;